createdAt,value
2018-04-10T00:02:16.949Z,17.70
2018-04-10T00:04:44.682Z,17.60
2018-04-10T00:07:19.884Z,17.60
2018-04-10T00:09:56.656Z,17.30
2018-04-10T00:12:31.021Z,17.40
2018-04-10T00:14:58.775Z,17.40
2018-04-10T00:17:30.589Z,17.80
2018-04-10T00:19:58.344Z,17.90
2018-04-10T00:22:26.055Z,17.60
2018-04-10T00:24:53.741Z,17.10
2018-04-10T00:27:21.396Z,17.30
2018-04-10T00:29:49.868Z,17.70
2018-04-10T00:32:21.549Z,17.40
2018-04-10T00:34:49.244Z,17.30
2018-04-10T00:37:33.547Z,17.60
2018-04-10T00:40:08.028Z,17.30
2018-04-10T00:42:35.957Z,17.30
2018-04-10T00:45:03.715Z,17.70
2018-04-10T00:47:31.524Z,17.90
2018-04-10T00:49:59.292Z,17.10
2018-04-10T00:52:28.185Z,17.70
2018-04-10T00:54:55.965Z,17.70
2018-04-10T00:57:23.756Z,18.30
2018-04-10T00:59:55.432Z,17.80
2018-04-10T01:02:24.147Z,17.50
2018-04-10T01:04:51.925Z,17.80
2018-04-10T01:07:20.548Z,18.10
2018-04-10T01:09:48.254Z,18.10
2018-04-10T01:12:15.992Z,17.40
2018-04-10T01:14:45.176Z,17.50
2018-04-10T01:17:12.887Z,17.00
2018-04-10T01:19:40.659Z,17.90
2018-04-10T01:22:08.535Z,17.20
2018-04-10T01:24:36.330Z,16.90
2018-04-10T01:27:04.144Z,17.20
2018-04-10T01:29:31.932Z,17.70
2018-04-10T01:31:59.645Z,17.70
2018-04-10T01:34:27.467Z,18.10
2018-04-10T01:36:55.308Z,18.10
2018-04-10T01:39:23.059Z,18.10
2018-04-10T01:41:50.797Z,18.00
2018-04-10T01:44:18.528Z,17.90
2018-04-10T01:46:46.278Z,17.60
2018-04-10T01:49:14.082Z,18.00
2018-04-10T01:51:41.835Z,17.90
2018-04-10T01:54:09.539Z,18.10
2018-04-10T01:56:37.863Z,18.30
2018-04-10T01:59:05.561Z,18.40
2018-04-10T02:01:34.155Z,18.40
2018-04-10T02:04:02.679Z,17.90
2018-04-10T02:06:31.323Z,17.80
2018-04-10T02:08:59.051Z,18.00
2018-04-10T02:11:26.695Z,18.10
2018-04-10T02:13:54.393Z,18.30
2018-04-10T02:16:22.804Z,18.20
2018-04-10T02:18:50.477Z,18.20
2018-04-10T02:21:18.143Z,18.30
2018-04-10T02:23:46.630Z,18.40
2018-04-10T02:26:15.150Z,18.50
2018-04-10T02:28:42.807Z,18.50
2018-04-10T02:31:11.215Z,18.40
2018-04-10T02:33:38.938Z,18.40
2018-04-10T02:36:06.611Z,18.40
2018-04-10T02:38:34.336Z,18.40
2018-04-10T02:41:02.191Z,18.40
2018-04-10T02:43:29.912Z,18.40
2018-04-10T02:45:57.641Z,18.40
2018-04-10T02:48:25.311Z,18.30
2018-04-10T02:50:53.788Z,18.40
2018-04-10T02:53:21.445Z,18.30
2018-04-10T02:55:49.183Z,18.30
2018-04-10T02:58:16.808Z,18.20
2018-04-10T03:00:46.392Z,18.30
2018-04-10T03:03:14.070Z,18.30
2018-04-10T03:05:42.540Z,18.20
2018-04-10T03:08:10.994Z,18.20
2018-04-10T03:10:38.834Z,18.20
2018-04-10T03:13:06.652Z,18.30
2018-04-10T03:15:34.365Z,18.20
2018-04-10T03:18:02.035Z,18.10
2018-04-10T03:20:29.901Z,18.10
2018-04-10T03:22:58.457Z,18.10
2018-04-10T03:25:26.935Z,18.00
2018-04-10T03:27:54.877Z,18.00
2018-04-10T03:30:22.665Z,18.00
2018-04-10T03:32:50.471Z,18.00
2018-04-10T03:35:18.394Z,18.00
2018-04-10T03:37:46.087Z,18.00
2018-04-10T03:40:13.857Z,17.90
2018-04-10T03:42:41.673Z,17.90
2018-04-10T03:45:09.345Z,18.00
2018-04-10T03:47:37.119Z,17.90
2018-04-10T03:50:04.903Z,17.90
2018-04-10T03:52:32.642Z,17.80
2018-04-10T03:55:00.495Z,17.80
2018-04-10T03:57:28.269Z,17.80
2018-04-10T03:59:56.199Z,17.80
2018-04-10T04:02:24.014Z,17.80
2018-04-10T04:04:51.792Z,17.80
2018-04-10T04:07:19.640Z,17.80
2018-04-10T04:09:47.824Z,17.80
2018-04-10T04:12:15.471Z,17.70
2018-04-10T04:14:43.351Z,17.60
2018-04-10T04:17:23.673Z,17.60
2018-04-10T04:23:08.077Z,17.60
2018-04-10T04:25:35.830Z,17.60
2018-04-10T04:28:04.404Z,17.60
2018-04-10T04:30:32.083Z,17.50
2018-04-10T04:33:00.504Z,17.60
2018-04-10T04:35:28.209Z,17.60
2018-04-10T04:37:58.309Z,17.60
2018-04-10T04:40:26.040Z,17.60
2018-04-10T04:42:53.744Z,17.60
2018-04-10T04:45:25.504Z,17.50
2018-04-10T04:47:54.015Z,17.50
2018-04-10T04:50:21.729Z,17.50
2018-04-10T04:52:49.599Z,17.40
2018-04-10T04:55:17.307Z,17.50
2018-04-10T04:57:52.316Z,17.50
2018-04-10T05:00:20.857Z,17.50
2018-04-10T05:02:48.593Z,17.50
2018-04-10T05:05:16.250Z,17.40
2018-04-10T05:07:43.955Z,17.50
2018-04-10T05:10:11.702Z,17.50
2018-04-10T05:12:39.399Z,17.60
2018-04-10T05:15:07.266Z,17.60
2018-04-10T05:17:36.187Z,17.60
2018-04-10T05:20:03.904Z,17.60
2018-04-10T05:22:34.646Z,17.60
2018-04-10T05:25:02.580Z,17.70
2018-04-10T05:27:30.268Z,17.80
2018-04-10T05:29:58.156Z,18.00
2018-04-10T05:32:25.892Z,17.90
2018-04-10T05:34:58.281Z,17.90
2018-04-10T05:37:27.189Z,17.80
2018-04-10T05:39:59.187Z,18.00
2018-04-10T05:42:35.834Z,18.30
2018-04-10T05:45:03.522Z,18.30
2018-04-10T05:47:31.267Z,18.50
2018-04-10T05:49:58.933Z,18.80
2018-04-10T05:52:26.588Z,18.90
2018-04-10T05:54:54.270Z,18.60
2018-04-10T05:57:21.914Z,18.30
2018-04-10T05:59:49.574Z,18.10
2018-04-10T06:02:17.212Z,18.00
2018-04-10T06:04:44.907Z,18.00
2018-04-10T06:07:13.319Z,17.80
2018-04-10T06:09:40.980Z,17.80
2018-04-10T06:12:08.607Z,17.80
2018-04-10T06:14:36.291Z,17.90
2018-04-10T06:17:03.970Z,17.70
2018-04-10T06:19:31.720Z,17.70
2018-04-10T06:21:59.415Z,17.60
2018-04-10T06:24:27.092Z,17.80
2018-04-10T06:26:54.801Z,17.60
2018-04-10T06:29:23.264Z,17.70
2018-04-10T06:31:51.094Z,17.60
2018-04-10T06:34:18.764Z,17.70
2018-04-10T06:36:46.417Z,17.70
2018-04-10T06:39:14.817Z,17.90
2018-04-10T06:41:43.236Z,17.60
2018-04-10T06:44:10.918Z,17.60
2018-04-10T06:46:38.559Z,17.40
2018-04-10T06:49:06.222Z,17.50
2018-04-10T06:51:34.666Z,18.00
2018-04-10T06:54:02.324Z,18.00
2018-04-10T06:56:30.002Z,17.90
2018-04-10T06:58:57.688Z,17.50
2018-04-10T07:01:25.344Z,17.50
2018-04-10T07:03:53.024Z,17.20
2018-04-10T07:06:20.644Z,17.60
2018-04-10T07:08:48.324Z,18.10
2018-04-10T07:11:15.963Z,17.90
2018-04-10T07:13:43.629Z,18.00
2018-04-10T07:16:11.262Z,18.00
2018-04-10T07:18:38.924Z,18.20
2018-04-10T07:21:06.618Z,18.00
2018-04-10T07:23:34.376Z,18.70
2018-04-10T07:26:02.036Z,19.10
2018-04-10T07:28:30.579Z,19.30
2018-04-10T07:30:58.300Z,19.80
2018-04-10T07:33:26.083Z,20.00
2018-04-10T07:35:53.797Z,19.90
2018-04-10T07:38:22.366Z,19.70
2018-04-10T07:40:51.644Z,21.00
2018-04-10T07:43:19.668Z,21.00
2018-04-10T07:45:47.402Z,21.20
2018-04-10T07:48:15.141Z,20.90
2018-04-10T07:50:42.914Z,21.20
2018-04-10T07:53:10.642Z,21.30
2018-04-10T07:55:38.455Z,21.50
2018-04-10T07:58:06.927Z,19.80
2018-04-10T08:00:34.631Z,19.80
2018-04-10T08:03:02.494Z,20.30
2018-04-10T08:05:30.424Z,19.60
2018-04-10T08:07:58.148Z,20.40
2018-04-10T08:10:25.950Z,20.00
2018-04-10T08:12:53.619Z,19.80
2018-04-10T08:15:21.317Z,20.10
2018-04-10T08:17:48.988Z,20.80
2018-04-10T08:20:16.627Z,21.20
2018-04-10T08:22:44.338Z,20.40
2018-04-10T08:25:12.209Z,19.90
2018-04-10T08:27:40.916Z,20.30
2018-04-10T08:30:14.080Z,20.40
2018-04-10T08:32:42.318Z,20.40
2018-04-10T08:37:58.627Z,20.50
2018-04-10T08:40:27.872Z,20.40
2018-04-10T08:42:56.148Z,19.60
2018-04-10T08:45:24.097Z,18.80
2018-04-10T08:47:51.908Z,19.00
2018-04-10T08:50:19.585Z,19.70
2018-04-10T08:52:47.378Z,20.20
2018-04-10T08:55:15.431Z,20.50
2018-04-10T08:57:43.158Z,19.70
2018-04-10T09:00:12.076Z,20.10
2018-04-10T09:02:39.769Z,20.00
2018-04-10T09:05:09.815Z,19.80
2018-04-10T09:07:39.322Z,19.70
2018-04-10T09:10:08.106Z,19.40
2018-04-10T09:12:36.058Z,19.90
2018-04-10T09:15:04.199Z,20.40
2018-04-10T09:17:33.387Z,20.20
2018-04-10T09:20:01.835Z,20.20
2018-04-10T09:22:29.959Z,20.20
2018-04-10T09:24:57.779Z,20.30
2018-04-10T09:27:25.741Z,20.40
2018-04-10T09:29:54.512Z,20.10
2018-04-10T09:32:24.744Z,20.10
2018-04-10T09:34:52.679Z,20.10
2018-04-10T09:37:20.515Z,20.30
2018-04-10T09:39:48.434Z,20.30
2018-04-10T09:42:18.737Z,20.70
2018-04-10T09:44:46.843Z,20.70
2018-04-10T09:47:16.561Z,20.80
2018-04-10T09:49:44.386Z,20.90
2018-04-10T09:52:13.195Z,20.90
2018-04-10T09:54:41.990Z,20.90
2018-04-10T09:57:09.760Z,20.20
2018-04-10T09:59:38.483Z,20.20
2018-04-10T10:02:07.761Z,20.50
2018-04-10T10:04:36.873Z,20.90
2018-04-10T10:07:05.069Z,21.10
2018-04-10T10:09:33.041Z,21.00
2018-04-10T10:12:00.773Z,21.10
2018-04-10T10:14:28.528Z,20.80
2018-04-10T10:16:56.300Z,20.40
2018-04-10T10:19:24.011Z,20.80
2018-04-10T10:21:52.600Z,21.30
2018-04-10T10:24:20.404Z,21.30
2018-04-10T10:26:48.965Z,20.80
2018-04-10T10:29:16.610Z,20.80
2018-04-10T10:31:44.336Z,21.00
2018-04-10T10:34:12.948Z,21.40
2018-04-10T10:36:40.726Z,21.70
2018-04-10T10:39:08.549Z,21.50
2018-04-10T10:41:36.467Z,21.70
2018-04-10T10:44:04.302Z,21.90
2018-04-10T10:46:32.100Z,21.90
2018-04-10T10:49:00.023Z,21.60
2018-04-10T10:51:27.798Z,21.90
2018-04-10T10:53:55.478Z,21.90
2018-04-10T10:56:24.140Z,22.10
2018-04-10T10:58:52.592Z,21.60
2018-04-10T11:01:20.459Z,21.60
2018-04-10T11:03:48.259Z,21.70
2018-04-10T11:06:15.979Z,21.20
2018-04-10T11:08:44.005Z,21.10
2018-04-10T11:11:11.679Z,21.30
2018-04-10T11:13:39.342Z,21.80
2018-04-10T11:16:08.054Z,22.20
2018-04-10T11:18:35.724Z,22.40
2018-04-10T11:21:03.345Z,22.60
2018-04-10T11:23:31.038Z,22.90
2018-04-10T11:25:58.683Z,22.90
2018-04-10T11:28:27.478Z,22.90
2018-04-10T11:30:55.109Z,23.00
2018-04-10T11:33:24.254Z,23.00
2018-04-10T11:35:52.815Z,23.00
2018-04-10T11:38:21.402Z,23.10
2018-04-10T11:40:49.827Z,23.10
2018-04-10T11:43:17.520Z,23.10
2018-04-10T11:45:45.137Z,23.20
2018-04-10T11:48:13.560Z,22.70
2018-04-10T11:50:41.203Z,22.60
2018-04-10T11:53:08.925Z,22.80
2018-04-10T11:55:36.554Z,22.90
2018-04-10T11:58:04.985Z,23.20
2018-04-10T12:00:32.629Z,23.10
2018-04-10T12:03:01.059Z,23.40
2018-04-10T12:05:28.673Z,23.40
2018-04-10T12:07:57.140Z,23.40
2018-04-10T12:10:24.780Z,23.40
2018-04-10T12:12:52.475Z,23.50
2018-04-10T12:15:20.170Z,23.70
2018-04-10T12:17:47.867Z,23.70
2018-04-10T12:20:15.586Z,23.60
2018-04-10T12:22:43.217Z,23.50
2018-04-10T12:25:11.017Z,23.40
2018-04-10T12:27:39.727Z,23.60
2018-04-10T12:30:09.416Z,23.30
2018-04-10T12:32:37.269Z,23.50
2018-04-10T12:35:05.140Z,22.70
2018-04-10T12:37:32.990Z,23.30
2018-04-10T12:42:35.726Z,23.50
2018-04-10T12:45:09.936Z,23.70
2018-04-10T12:47:40.845Z,23.60
2018-04-10T12:50:08.865Z,23.80
2018-04-10T12:52:37.330Z,23.70
2018-04-10T12:55:09.111Z,23.70
2018-04-10T12:57:39.096Z,23.70
2018-04-10T13:00:14.558Z,23.70
2018-04-10T13:02:51.697Z,23.80
2018-04-10T13:05:26.224Z,23.90
2018-04-10T13:07:54.034Z,23.90
2018-04-10T13:10:21.891Z,24.00
2018-04-10T13:13:08.033Z,23.90
2018-04-10T13:15:40.532Z,23.80
2018-04-10T13:20:48.068Z,23.90
2018-04-10T13:23:15.739Z,23.70
2018-04-10T13:28:41.198Z,23.60
2018-04-10T13:31:09.024Z,23.80
2018-04-10T13:33:38.926Z,24.10
2018-04-10T13:36:08.721Z,24.00
2018-04-10T13:41:28.869Z,23.70
2018-04-10T13:43:57.493Z,23.50
2018-04-10T13:46:26.197Z,23.80
2018-04-10T13:48:54.187Z,23.70
2018-04-10T13:51:21.892Z,24.10
2018-04-10T13:53:49.521Z,24.20
2018-04-10T13:56:17.214Z,24.50
2018-04-10T13:58:44.895Z,24.60
2018-04-10T14:01:12.590Z,24.40
2018-04-10T14:03:41.398Z,24.40
2018-04-10T14:06:09.083Z,24.40
2018-04-10T14:08:37.000Z,24.40
2018-04-10T14:11:04.724Z,24.30
2018-04-10T14:13:32.386Z,24.20
2018-04-10T14:16:00.822Z,24.10
2018-04-10T14:18:28.486Z,24.10
2018-04-10T14:20:56.179Z,23.90
2018-04-10T14:23:23.867Z,23.70
2018-04-10T14:25:51.525Z,24.00
2018-04-10T14:28:19.182Z,24.10
2018-04-10T14:30:46.884Z,24.40
2018-04-10T14:33:14.584Z,23.90
2018-04-10T14:35:42.358Z,24.20
2018-04-10T14:38:10.030Z,24.40
2018-04-10T14:40:37.699Z,24.20
2018-04-10T14:43:06.753Z,24.50
2018-04-10T14:45:34.445Z,23.70
2018-04-10T14:48:02.147Z,23.90
2018-04-10T14:50:29.795Z,23.80
2018-04-10T14:52:58.605Z,24.10
2018-04-10T14:55:30.056Z,23.90
2018-04-10T14:57:58.413Z,24.10
2018-04-10T15:00:26.895Z,24.40
2018-04-10T15:02:55.376Z,24.60
2018-04-10T15:05:23.057Z,24.60
2018-04-10T15:07:50.701Z,24.50
2018-04-10T15:10:18.354Z,24.60
2018-04-10T15:12:48.585Z,24.40
2018-04-10T15:15:17.606Z,24.40
2018-04-10T15:17:45.264Z,24.10
2018-04-10T15:20:17.391Z,24.10
2018-04-10T15:22:45.793Z,24.30
2018-04-10T15:25:13.449Z,24.30
2018-04-10T15:27:41.177Z,24.10
2018-04-10T15:30:08.833Z,24.10
2018-04-10T15:32:36.617Z,24.00
2018-04-10T15:35:04.410Z,24.30
2018-04-10T15:37:32.055Z,24.10
2018-04-10T15:40:00.512Z,24.00
2018-04-10T15:42:28.278Z,24.00
2018-04-10T15:44:55.993Z,24.20
2018-04-10T15:47:23.701Z,24.30
2018-04-10T15:49:51.393Z,24.50
2018-04-10T15:52:19.011Z,24.30
2018-04-10T15:54:47.524Z,24.20
2018-04-10T15:57:15.304Z,24.00
2018-04-10T15:59:43.693Z,24.20
2018-04-10T16:02:12.159Z,24.40
2018-04-10T16:04:39.840Z,24.40
2018-04-10T16:07:07.589Z,24.20
2018-04-10T16:09:35.323Z,23.90
2018-04-10T16:12:03.195Z,24.10
2018-04-10T16:14:31.017Z,24.20
2018-04-10T16:16:59.021Z,24.20
2018-04-10T16:19:26.734Z,24.10
2018-04-10T16:21:54.556Z,24.10
2018-04-10T16:24:22.324Z,23.80
2018-04-10T16:26:50.095Z,23.70
2018-04-10T16:29:18.528Z,23.70
2018-04-10T16:31:48.478Z,23.70
2018-04-10T16:34:17.000Z,23.60
2018-04-10T16:36:44.848Z,23.40
2018-04-10T16:39:12.841Z,23.50
2018-04-10T16:41:41.340Z,23.50
2018-04-10T16:44:08.959Z,23.50
2018-04-10T16:46:36.611Z,23.30
2018-04-10T16:49:05.073Z,23.70
2018-04-10T16:51:33.623Z,23.70
2018-04-10T16:54:01.319Z,23.70
2018-04-10T16:56:29.079Z,23.60
2018-04-10T16:58:57.000Z,23.50
2018-04-10T17:01:26.707Z,23.50
2018-04-10T17:03:54.536Z,23.60
2018-04-10T17:06:22.283Z,23.60
2018-04-10T17:08:50.153Z,23.60
2018-04-10T17:11:17.805Z,23.70
2018-04-10T17:13:45.527Z,23.70
2018-04-10T17:16:13.435Z,23.70
2018-04-10T17:18:41.097Z,23.70
2018-04-10T17:21:09.127Z,23.50
2018-04-10T17:23:37.100Z,23.60
2018-04-10T17:26:04.933Z,23.60
2018-04-10T17:28:33.138Z,23.60
2018-04-10T17:31:00.944Z,23.60
2018-04-10T17:33:28.673Z,23.50
2018-04-10T17:35:56.441Z,23.50
2018-04-10T17:38:24.931Z,23.30
2018-04-10T17:40:52.744Z,23.30
2018-04-10T17:43:20.416Z,23.40
2018-04-10T17:46:00.741Z,23.50
2018-04-10T18:12:34.287Z,23.40
2018-04-10T18:15:03.048Z,22.90
2018-04-10T18:17:31.025Z,22.90
2018-04-10T18:19:58.795Z,23.00
2018-04-10T18:22:26.463Z,23.10
2018-04-10T18:24:54.236Z,23.20
2018-04-10T18:27:22.126Z,23.10
2018-04-10T18:29:50.591Z,23.10
2018-04-10T18:32:18.301Z,23.20
2018-04-10T18:34:46.307Z,23.10
2018-04-10T18:37:14.927Z,23.10
2018-04-10T18:39:42.996Z,23.10
2018-04-10T18:42:11.572Z,23.10
2018-04-10T18:44:39.347Z,23.00
2018-04-10T18:47:08.953Z,23.00
2018-04-10T18:49:38.756Z,23.00
2018-04-10T18:52:06.704Z,23.00
2018-04-10T18:54:34.650Z,22.80
2018-04-10T18:57:06.343Z,22.80
2018-04-10T19:02:31.966Z,22.40
2018-04-10T19:04:59.980Z,22.50
2018-04-10T19:07:27.996Z,21.80
2018-04-10T19:09:55.680Z,22.20
2018-04-10T19:12:23.444Z,21.80
2018-04-10T19:14:51.067Z,21.60
2018-04-10T19:17:19.725Z,21.20
2018-04-10T19:19:47.696Z,20.60
2018-04-10T19:22:16.503Z,20.00
2018-04-10T19:24:44.552Z,19.20
2018-04-10T19:27:12.674Z,18.90
2018-04-10T19:29:40.797Z,19.20
2018-04-10T19:32:11.856Z,17.60
2018-04-10T19:34:39.688Z,17.20
2018-04-10T19:37:07.524Z,16.80
2018-04-10T19:39:35.304Z,16.80
2018-04-10T19:42:03.070Z,17.00
2018-04-10T19:44:30.761Z,16.90
2018-04-10T19:46:59.483Z,16.50
2018-04-10T19:49:27.150Z,16.30
2018-04-10T19:51:55.621Z,16.30
2018-04-10T19:54:29.210Z,16.20
2018-04-10T19:59:30.881Z,15.30
2018-04-10T20:01:58.684Z,15.80
2018-04-10T20:04:43.986Z,16.20
2018-04-10T20:07:11.895Z,15.80
2018-04-10T20:09:45.161Z,15.50
2018-04-10T20:12:12.869Z,16.00
2018-04-10T20:14:40.664Z,16.30
2018-04-10T20:17:08.398Z,15.80
2018-04-10T20:19:36.993Z,16.80
2018-04-10T20:22:05.623Z,16.90
2018-04-10T20:24:33.881Z,16.60
2018-04-10T20:29:50.354Z,16.80
2018-04-10T20:32:18.016Z,16.80
2018-04-10T20:34:45.790Z,16.70
2018-04-10T20:37:13.493Z,17.00
2018-04-10T20:39:42.208Z,17.50
2018-04-10T20:42:09.872Z,17.50
2018-04-10T20:44:37.665Z,17.00
2018-04-10T20:47:05.717Z,16.50
2018-04-10T20:49:35.362Z,16.90
2018-04-10T20:52:03.161Z,16.80
2018-04-10T20:54:39.245Z,17.20
2018-04-10T20:57:06.981Z,17.50
2018-04-10T20:59:34.679Z,17.30
2018-04-10T21:02:02.339Z,17.60
2018-04-10T21:04:32.279Z,17.30
2018-04-10T21:07:00.044Z,17.60
2018-04-10T21:09:27.783Z,17.90
2018-04-10T21:11:55.520Z,17.80
2018-04-10T21:14:23.248Z,17.80
2018-04-10T21:16:51.697Z,17.60
2018-04-10T21:19:19.496Z,17.60
2018-04-10T21:21:48.722Z,17.60
2018-04-10T21:24:44.425Z,17.90
2018-04-10T21:27:12.253Z,18.00
2018-04-10T21:29:45.646Z,17.90
2018-04-10T21:32:13.320Z,17.70
2018-04-10T21:34:45.527Z,17.50
2018-04-10T21:37:13.216Z,17.20
2018-04-10T21:39:42.856Z,17.30
2018-04-10T21:42:15.303Z,17.10
2018-04-10T21:44:43.101Z,17.00
2018-04-10T21:47:11.654Z,16.80
2018-04-10T21:49:43.103Z,16.70
2018-04-10T21:52:10.794Z,17.40
2018-04-10T21:54:38.598Z,17.10
2018-04-10T21:57:06.328Z,17.60
2018-04-10T21:59:34.007Z,16.80
2018-04-10T22:02:01.730Z,16.50
2018-04-10T22:04:29.489Z,16.90
2018-04-10T22:06:57.931Z,17.60
2018-04-10T22:09:45.761Z,17.60
2018-04-10T22:12:13.439Z,17.80
2018-04-10T22:14:41.981Z,18.10
2018-04-10T22:17:10.463Z,18.10
2018-04-10T22:19:38.137Z,18.10
2018-04-10T22:22:06.024Z,18.20
2018-04-10T22:24:33.898Z,18.20
2018-04-10T22:27:01.610Z,18.20
2018-04-10T22:29:30.247Z,18.10
2018-04-10T22:31:58.006Z,18.10
2018-04-10T22:34:25.637Z,17.60
2018-04-10T22:36:53.419Z,18.00
2018-04-10T22:39:21.232Z,17.70
2018-04-10T22:41:49.033Z,17.40
2018-04-10T22:44:16.711Z,17.80
2018-04-10T22:46:44.497Z,17.60
2018-04-10T22:49:12.829Z,18.00
2018-04-10T22:51:40.707Z,17.90
2018-04-10T22:54:09.100Z,18.10
2018-04-10T22:56:40.666Z,17.80
2018-04-10T22:59:08.947Z,17.90
2018-04-10T23:01:36.935Z,17.60
2018-04-10T23:04:06.109Z,17.90
2018-04-10T23:06:34.841Z,17.90
2018-04-10T23:09:03.218Z,17.50
2018-04-10T23:11:31.438Z,17.60
2018-04-10T23:13:59.338Z,17.90
2018-04-10T23:16:27.205Z,18.10
2018-04-10T23:18:54.947Z,18.20
2018-04-10T23:21:23.582Z,18.20
2018-04-10T23:23:51.357Z,18.20
2018-04-10T23:26:19.069Z,18.10
2018-04-10T23:28:46.909Z,18.10
2018-04-10T23:31:15.533Z,18.20
2018-04-10T23:33:43.921Z,18.10
2018-04-10T23:36:12.036Z,18.20
2018-04-10T23:38:39.916Z,18.20
2018-04-10T23:41:08.046Z,18.10
2018-04-10T23:43:42.121Z,18.20
2018-04-10T23:46:10.207Z,18.10
2018-04-10T23:48:38.161Z,17.90
2018-04-10T23:51:05.983Z,18.00
2018-04-10T23:53:33.801Z,18.10
2018-04-10T23:56:01.810Z,18.10
2018-04-10T23:58:29.542Z,18.10
